createdAt,value
2023-05-25T00:00:20.641Z,97572.00
2023-05-25T00:02:47.744Z,97569.00
2023-05-25T00:05:15.026Z,97570.00
2023-05-25T00:07:41.884Z,97574.00
2023-05-25T00:10:09.477Z,97567.00
2023-05-25T00:12:37.748Z,97573.00
2023-05-25T00:15:08.325Z,97578.00
2023-05-25T00:17:37.294Z,97570.00
2023-05-25T00:20:07.376Z,97569.00
2023-05-25T00:22:38.329Z,97562.00
2023-05-25T00:25:06.911Z,97549.00
2023-05-25T00:27:33.802Z,97557.00
2023-05-25T00:30:00.729Z,97551.00
2023-05-25T00:32:27.717Z,97541.00
2023-05-25T00:34:55.417Z,97547.00
2023-05-25T00:37:22.315Z,97549.00
2023-05-25T00:39:49.112Z,97541.00
2023-05-25T00:42:16.485Z,97548.00
2023-05-25T00:44:43.384Z,97542.00
2023-05-25T00:47:11.806Z,97535.00
2023-05-25T00:49:38.751Z,97535.00
2023-05-25T00:52:06.416Z,97545.00
2023-05-25T00:54:35.198Z,97537.00
2023-05-25T00:57:04.837Z,97540.00
2023-05-25T00:59:41.447Z,97535.00
2023-05-25T01:02:11.068Z,97538.00
2023-05-25T01:05:01.001Z,97541.00
2023-05-25T01:07:29.160Z,97538.00
2023-05-25T01:10:02.313Z,97537.00
2023-05-25T01:12:32.526Z,97530.00
2023-05-25T01:15:02.310Z,97534.00
2023-05-25T01:17:29.250Z,97534.00
2023-05-25T01:20:09.832Z,97533.00
2023-05-25T01:22:48.964Z,97530.00
2023-05-25T01:25:23.098Z,97533.00
2023-05-25T01:28:02.537Z,97540.00
2023-05-25T01:30:32.887Z,97538.00
2023-05-25T01:33:01.333Z,97538.00
2023-05-25T01:35:29.100Z,97535.00
2023-05-25T01:37:58.273Z,97533.00
2023-05-25T01:40:25.128Z,97549.00
2023-05-25T01:42:51.958Z,97551.00
2023-05-25T01:45:19.058Z,97557.00
2023-05-25T01:48:01.248Z,97559.00
2023-05-25T01:50:41.121Z,97559.00
2023-05-25T01:53:13.744Z,97556.00
2023-05-25T01:55:52.669Z,97551.00
2023-05-25T01:58:20.398Z,97545.00
2023-05-25T02:00:49.657Z,97553.00
2023-05-25T02:03:18.195Z,97544.00
2023-05-25T02:05:46.872Z,97543.00
2023-05-25T02:08:13.837Z,97539.00
2023-05-25T02:10:40.775Z,97531.00
2023-05-25T02:13:07.782Z,97544.00
2023-05-25T02:15:34.860Z,97539.00
2023-05-25T02:18:01.737Z,97546.00
2023-05-25T02:20:28.669Z,97549.00
2023-05-25T02:22:55.658Z,97547.00
2023-05-25T02:25:22.464Z,97546.00
2023-05-25T02:27:50.513Z,97550.00
2023-05-25T02:30:17.377Z,97552.00
2023-05-25T02:32:44.288Z,97542.00
2023-05-25T02:35:11.550Z,97546.00
2023-05-25T02:37:39.175Z,97548.00
2023-05-25T02:40:06.883Z,97544.00
2023-05-25T02:42:33.716Z,97551.00
2023-05-25T02:45:00.550Z,97533.00
2023-05-25T02:47:27.443Z,97544.00
2023-05-25T02:49:54.321Z,97546.00
2023-05-25T02:52:22.566Z,97550.00
2023-05-25T02:54:49.628Z,97550.00
2023-05-25T02:57:16.859Z,97553.00
2023-05-25T02:59:43.639Z,97553.00
2023-05-25T03:02:10.744Z,97553.00
2023-05-25T03:04:38.914Z,97564.00
2023-05-25T03:07:05.730Z,97558.00
2023-05-25T03:09:32.877Z,97568.00
2023-05-25T03:11:59.674Z,97566.00
2023-05-25T03:14:26.711Z,97560.00
2023-05-25T03:16:54.190Z,97554.00
2023-05-25T03:19:21.468Z,97567.00
2023-05-25T03:21:48.381Z,97562.00
2023-05-25T03:24:15.175Z,97575.00
2023-05-25T03:26:41.959Z,97571.00
2023-05-25T03:29:08.922Z,97574.00
2023-05-25T03:31:36.300Z,97586.00
2023-05-25T03:34:04.240Z,97572.00
2023-05-25T03:36:32.677Z,97575.00
2023-05-25T03:38:59.884Z,97575.00
2023-05-25T03:41:27.076Z,97574.00
2023-05-25T03:43:54.011Z,97578.00
2023-05-25T03:46:21.010Z,97580.00
2023-05-25T03:48:48.184Z,97573.00
2023-05-25T03:51:15.039Z,97582.00
2023-05-25T03:53:41.846Z,97580.00
2023-05-25T03:56:08.690Z,97587.00
2023-05-25T03:58:35.537Z,97592.00
2023-05-25T04:01:04.973Z,97593.00
2023-05-25T04:03:33.843Z,97584.00
2023-05-25T04:06:02.067Z,97590.00
2023-05-25T04:08:29.321Z,97595.00
2023-05-25T04:10:57.167Z,97596.00
2023-05-25T04:13:24.009Z,97597.00
2023-05-25T04:15:51.323Z,97596.00
2023-05-25T04:18:19.137Z,97599.00
2023-05-25T04:20:46.723Z,97601.00
2023-05-25T04:23:13.564Z,97601.00
2023-05-25T04:25:42.144Z,97595.00
2023-05-25T04:28:12.327Z,97594.00
2023-05-25T04:30:39.732Z,97607.00
2023-05-25T04:33:06.602Z,97613.00
2023-05-25T04:35:33.558Z,97606.00
2023-05-25T04:38:02.776Z,97609.00
2023-05-25T04:40:30.094Z,97621.00
2023-05-25T04:42:57.059Z,97627.00
2023-05-25T04:45:23.996Z,97622.00
2023-05-25T04:47:51.363Z,97621.00
2023-05-25T04:50:18.731Z,97624.00
2023-05-25T04:52:45.819Z,97616.00
2023-05-25T04:55:12.866Z,97621.00
2023-05-25T04:57:39.811Z,97620.00
2023-05-25T05:00:09.887Z,97624.00
2023-05-25T05:02:37.177Z,97623.00
2023-05-25T05:05:04.312Z,97622.00
2023-05-25T05:07:31.684Z,97624.00
2023-05-25T05:09:58.604Z,97624.00
2023-05-25T05:12:25.382Z,97638.00
2023-05-25T05:14:53.068Z,97633.00
2023-05-25T05:17:19.863Z,97632.00
2023-05-25T05:19:46.696Z,97633.00
2023-05-25T05:22:15.869Z,97621.00
2023-05-25T05:24:42.845Z,97627.00
2023-05-25T05:27:10.629Z,97632.00
2023-05-25T05:29:37.523Z,97639.00
2023-05-25T05:32:04.558Z,97634.00
2023-05-25T05:34:31.531Z,97636.00
2023-05-25T05:37:00.078Z,97643.00
2023-05-25T05:39:28.072Z,97633.00
2023-05-25T05:41:55.854Z,97640.00
2023-05-25T05:44:26.008Z,97651.00
2023-05-25T05:46:59.997Z,97653.00
2023-05-25T05:49:28.483Z,97654.00
2023-05-25T05:51:55.621Z,97648.00
2023-05-25T05:54:22.512Z,97654.00
2023-05-25T05:56:50.386Z,97655.00
2023-05-25T05:59:17.356Z,97656.00
2023-05-25T06:01:44.298Z,97664.00
2023-05-25T06:04:11.120Z,97655.00
2023-05-25T06:06:38.627Z,97654.00
2023-05-25T06:09:06.898Z,97659.00
2023-05-25T06:11:39.922Z,97658.00
2023-05-25T06:14:06.944Z,97657.00
2023-05-25T06:16:33.977Z,97656.00
2023-05-25T06:19:01.281Z,97658.00
2023-05-25T06:21:28.291Z,97665.00
2023-05-25T06:23:57.740Z,97671.00
2023-05-25T06:26:24.966Z,97666.00
2023-05-25T06:28:51.947Z,97663.00
2023-05-25T06:31:19.018Z,97663.00
2023-05-25T06:33:46.012Z,97666.00
2023-05-25T06:36:15.912Z,97668.00
2023-05-25T06:38:43.080Z,97668.00
2023-05-25T06:41:12.726Z,97671.00
2023-05-25T06:43:39.610Z,97668.00
2023-05-25T06:46:06.503Z,97667.00
2023-05-25T06:48:33.326Z,97661.00
2023-05-25T06:51:00.154Z,97658.00
2023-05-25T06:53:26.969Z,97662.00
2023-05-25T06:55:53.784Z,97666.00
2023-05-25T06:58:20.747Z,97673.00
2023-05-25T07:00:47.599Z,97672.00
2023-05-25T07:03:14.513Z,97669.00
2023-05-25T07:05:41.523Z,97672.00
2023-05-25T07:08:08.469Z,97667.00
2023-05-25T07:10:35.454Z,97660.00
2023-05-25T07:13:02.340Z,97654.00
2023-05-25T07:15:29.167Z,97659.00
2023-05-25T07:17:57.251Z,97671.00
2023-05-25T07:20:24.638Z,97674.00
2023-05-25T07:22:53.239Z,97658.00
2023-05-25T07:25:20.176Z,97659.00
2023-05-25T07:27:50.455Z,97664.00
2023-05-25T07:30:17.388Z,97664.00
2023-05-25T07:32:44.339Z,97664.00
2023-05-25T07:35:11.248Z,97661.00
2023-05-25T07:37:38.147Z,97668.00
2023-05-25T07:40:06.211Z,97680.00
2023-05-25T07:42:34.501Z,97674.00
2023-05-25T07:45:02.490Z,97678.00
2023-05-25T07:47:29.549Z,97671.00
2023-05-25T07:49:56.459Z,97678.00
2023-05-25T07:52:23.265Z,97680.00
2023-05-25T07:54:50.111Z,97680.00
2023-05-25T07:57:17.087Z,97685.00
2023-05-25T07:59:44.860Z,97680.00
2023-05-25T08:02:11.729Z,97683.00
2023-05-25T08:04:38.791Z,97677.00
2023-05-25T08:07:05.715Z,97681.00
2023-05-25T08:09:32.557Z,97679.00
2023-05-25T08:12:18.591Z,97676.00
2023-05-25T08:14:46.846Z,97683.00
2023-05-25T08:17:13.849Z,97683.00
2023-05-25T08:19:40.751Z,97691.00
2023-05-25T08:22:07.582Z,97670.00
2023-05-25T08:24:34.415Z,97688.00
2023-05-25T08:27:01.907Z,97681.00
2023-05-25T08:29:28.737Z,97678.00
2023-05-25T08:31:55.705Z,97674.00
2023-05-25T08:34:22.644Z,97685.00
2023-05-25T08:36:49.581Z,97682.00
2023-05-25T08:39:16.743Z,97682.00
2023-05-25T08:41:44.772Z,97673.00
2023-05-25T08:44:14.254Z,97682.00
2023-05-25T08:46:41.273Z,97676.00
2023-05-25T08:49:13.984Z,97680.00
2023-05-25T08:51:53.000Z,97674.00
2023-05-25T08:54:34.572Z,97684.00
2023-05-25T08:57:16.786Z,97679.00
2023-05-25T09:00:11.626Z,97688.00
2023-05-25T09:02:57.988Z,97681.00
2023-05-25T09:05:25.279Z,97682.00
2023-05-25T09:07:54.764Z,97688.00
2023-05-25T09:10:22.331Z,97688.00
2023-05-25T09:12:52.042Z,97690.00
2023-05-25T09:15:19.220Z,97687.00
2023-05-25T09:17:46.175Z,97679.00
2023-05-25T09:20:16.382Z,97667.00
2023-05-25T09:22:44.484Z,97669.00
2023-05-25T09:25:13.472Z,97679.00
2023-05-25T09:27:42.315Z,97687.00
2023-05-25T09:30:09.734Z,97684.00
2023-05-25T09:32:38.120Z,97677.00
2023-05-25T09:35:08.798Z,97681.00
2023-05-25T09:37:37.405Z,97687.00
2023-05-25T09:40:06.568Z,97684.00
2023-05-25T09:42:37.889Z,97689.00
2023-05-25T09:45:06.184Z,97689.00
2023-05-25T09:47:33.808Z,97691.00
2023-05-25T09:50:00.704Z,97686.00
2023-05-25T09:52:27.781Z,97686.00
2023-05-25T09:54:56.207Z,97687.00
2023-05-25T09:57:23.034Z,97687.00
2023-05-25T09:59:50.031Z,97694.00
2023-05-25T10:02:16.937Z,97680.00
2023-05-25T10:04:43.857Z,97690.00
2023-05-25T10:07:11.211Z,97684.00
2023-05-25T10:09:43.367Z,97680.00
2023-05-25T10:12:11.167Z,97682.00
2023-05-25T10:14:39.041Z,97688.00
2023-05-25T10:17:07.157Z,97679.00
2023-05-25T10:19:41.480Z,97690.00
2023-05-25T10:22:37.054Z,97685.00
2023-05-25T10:25:28.516Z,97684.00
2023-05-25T10:28:03.555Z,97691.00
2023-05-25T10:30:30.639Z,97690.00
2023-05-25T10:32:57.713Z,97687.00
2023-05-25T10:35:25.180Z,97686.00
2023-05-25T10:37:53.908Z,97688.00
2023-05-25T10:40:24.358Z,97682.00
2023-05-25T10:42:51.864Z,97677.00
2023-05-25T10:45:19.093Z,97681.00
2023-05-25T10:47:46.515Z,97680.00
2023-05-25T10:50:19.560Z,97682.00
2023-05-25T10:52:46.389Z,97677.00
2023-05-25T10:55:13.228Z,97675.00
2023-05-25T10:57:40.081Z,97686.00
2023-05-25T11:00:10.169Z,97671.00
2023-05-25T11:02:56.112Z,97670.00
2023-05-25T11:05:31.682Z,97665.00
2023-05-25T11:08:02.561Z,97670.00
2023-05-25T11:10:48.262Z,97676.00
2023-05-25T11:13:31.156Z,97674.00
2023-05-25T11:16:17.600Z,97673.00
2023-05-25T11:18:53.311Z,97672.00
2023-05-25T11:21:27.136Z,97667.00
2023-05-25T11:23:58.845Z,97654.00
2023-05-25T11:26:31.101Z,97662.00
2023-05-25T11:28:59.334Z,97664.00
2023-05-25T11:31:39.124Z,97652.00
2023-05-25T11:34:09.427Z,97660.00
2023-05-25T11:36:36.885Z,97656.00
2023-05-25T11:39:11.746Z,97651.00
2023-05-25T11:42:03.921Z,97660.00
2023-05-25T11:44:36.294Z,97659.00
2023-05-25T11:47:10.105Z,97656.00
2023-05-25T11:49:49.687Z,97655.00
2023-05-25T11:52:18.959Z,97651.00
2023-05-25T11:54:46.898Z,97656.00
2023-05-25T11:57:15.665Z,97653.00
2023-05-25T11:59:52.143Z,97653.00
2023-05-25T12:02:20.475Z,97659.00
2023-05-25T12:05:04.242Z,97653.00
2023-05-25T12:07:32.044Z,97648.00
2023-05-25T12:10:13.746Z,97649.00
2023-05-25T12:12:47.970Z,97650.00
2023-05-25T12:15:21.053Z,97644.00
2023-05-25T12:17:48.966Z,97645.00
2023-05-25T12:20:18.125Z,97640.00
2023-05-25T12:22:46.388Z,97642.00
2023-05-25T12:25:15.886Z,97639.00
2023-05-25T12:27:43.732Z,97637.00
2023-05-25T12:30:11.447Z,97638.00
2023-05-25T12:33:04.568Z,97640.00
2023-05-25T12:35:49.138Z,97642.00
2023-05-25T12:38:19.662Z,97647.00
2023-05-25T12:40:46.978Z,97648.00
2023-05-25T12:43:15.346Z,97638.00
2023-05-25T12:45:43.536Z,97645.00
2023-05-25T12:48:10.762Z,97643.00
2023-05-25T12:50:38.221Z,97627.00
2023-05-25T12:53:05.892Z,97631.00
2023-05-25T12:55:35.511Z,97630.00
2023-05-25T12:58:06.690Z,97636.00
2023-05-25T13:00:38.720Z,97633.00
2023-05-25T13:03:09.809Z,97638.00
2023-05-25T13:05:38.143Z,97628.00
2023-05-25T13:08:06.719Z,97631.00
2023-05-25T13:10:37.120Z,97634.00
2023-05-25T13:13:04.737Z,97625.00
2023-05-25T13:15:31.827Z,97620.00
2023-05-25T13:17:58.976Z,97626.00
2023-05-25T13:20:27.243Z,97620.00
2023-05-25T13:22:57.872Z,97628.00
2023-05-25T13:25:27.637Z,97625.00
2023-05-25T13:27:56.858Z,97619.00
2023-05-25T13:30:23.846Z,97611.00
2023-05-25T13:32:52.919Z,97619.00
2023-05-25T13:35:37.177Z,97629.00
2023-05-25T13:38:04.402Z,97624.00
2023-05-25T13:40:31.247Z,97612.00
2023-05-25T13:42:58.045Z,97612.00
2023-05-25T13:45:24.844Z,97618.00
2023-05-25T13:47:52.027Z,97608.00
2023-05-25T13:50:19.859Z,97608.00
2023-05-25T13:52:46.688Z,97622.00
2023-05-25T13:55:13.516Z,97615.00
2023-05-25T13:57:40.316Z,97618.00
2023-05-25T14:00:08.489Z,97610.00
2023-05-25T14:02:36.662Z,97609.00
2023-05-25T14:05:03.817Z,97613.00
2023-05-25T14:07:31.234Z,97600.00
2023-05-25T14:10:00.130Z,97595.00
2023-05-25T14:12:27.396Z,97603.00
2023-05-25T14:14:54.264Z,97595.00
2023-05-25T14:17:21.383Z,97592.00
2023-05-25T14:19:48.217Z,97588.00
2023-05-25T14:22:15.352Z,97583.00
2023-05-25T14:24:42.320Z,97596.00
2023-05-25T14:27:09.381Z,97593.00
2023-05-25T14:29:36.350Z,97594.00
2023-05-25T14:32:03.641Z,97586.00
2023-05-25T14:34:31.617Z,97584.00
2023-05-25T14:36:59.249Z,97581.00
2023-05-25T14:39:26.584Z,97587.00
2023-05-25T14:41:53.878Z,97585.00
2023-05-25T14:44:20.899Z,97580.00
2023-05-25T14:46:47.788Z,97578.00
2023-05-25T14:49:16.780Z,97579.00
2023-05-25T14:51:43.630Z,97580.00
2023-05-25T14:54:13.406Z,97581.00
2023-05-25T14:56:40.296Z,97580.00
2023-05-25T14:59:07.193Z,97581.00
2023-05-25T15:01:34.331Z,97568.00
2023-05-25T15:04:01.375Z,97575.00
2023-05-25T15:06:28.418Z,97578.00
2023-05-25T15:08:55.385Z,97576.00
2023-05-25T15:11:22.220Z,97581.00
2023-05-25T15:13:49.061Z,97579.00
2023-05-25T15:16:17.279Z,97583.00
2023-05-25T15:18:44.992Z,97572.00
2023-05-25T15:21:11.825Z,97575.00
2023-05-25T15:23:38.666Z,97581.00
2023-05-25T15:26:07.661Z,97566.00
2023-05-25T15:28:34.868Z,97575.00
2023-05-25T15:31:03.310Z,97580.00
2023-05-25T15:33:48.521Z,97559.00
2023-05-25T15:36:19.031Z,97573.00
2023-05-25T15:38:49.122Z,97575.00
2023-05-25T15:41:17.435Z,97582.00
2023-05-25T15:43:58.558Z,97576.00
2023-05-25T15:46:25.795Z,97567.00
2023-05-25T15:48:53.232Z,97571.00
2023-05-25T15:51:20.301Z,97564.00
2023-05-25T15:53:48.006Z,97570.00
2023-05-25T15:56:14.905Z,97565.00
2023-05-25T15:58:41.859Z,97568.00
2023-05-25T16:01:09.182Z,97566.00
2023-05-25T16:03:37.036Z,97568.00
2023-05-25T16:06:04.001Z,97570.00
2023-05-25T16:08:30.823Z,97557.00
2023-05-25T16:10:57.676Z,97564.00
2023-05-25T16:13:24.499Z,97565.00
2023-05-25T16:15:51.416Z,97564.00
2023-05-25T16:18:18.372Z,97566.00
2023-05-25T16:20:45.390Z,97567.00
2023-05-25T16:23:12.430Z,97570.00
2023-05-25T16:25:39.261Z,97563.00
2023-05-25T16:28:06.105Z,97559.00
2023-05-25T16:30:33.100Z,97560.00
2023-05-25T16:33:00.052Z,97562.00
2023-05-25T16:35:26.989Z,97561.00
2023-05-25T16:37:53.868Z,97561.00
2023-05-25T16:40:20.759Z,97557.00
2023-05-25T16:42:47.697Z,97558.00
2023-05-25T16:45:14.604Z,97554.00
2023-05-25T16:47:41.464Z,97553.00
2023-05-25T16:50:09.088Z,97552.00
2023-05-25T16:52:36.037Z,97544.00
2023-05-25T16:55:03.058Z,97552.00
2023-05-25T16:57:29.964Z,97546.00
2023-05-25T16:59:56.782Z,97543.00
2023-05-25T17:02:23.797Z,97552.00
2023-05-25T17:04:50.833Z,97548.00
2023-05-25T17:07:17.944Z,97556.00
2023-05-25T17:09:44.820Z,97549.00
2023-05-25T17:12:11.710Z,97559.00
2023-05-25T17:14:38.630Z,97553.00
2023-05-25T17:17:05.748Z,97550.00
2023-05-25T17:19:33.386Z,97554.00
2023-05-25T17:22:00.242Z,97549.00
2023-05-25T17:24:27.154Z,97551.00
2023-05-25T17:26:54.080Z,97549.00
2023-05-25T17:29:20.955Z,97547.00
2023-05-25T17:31:48.950Z,97543.00
2023-05-25T17:34:16.900Z,97547.00
2023-05-25T17:36:43.826Z,97548.00
2023-05-25T17:39:10.690Z,97556.00
2023-05-25T17:41:37.616Z,97545.00
2023-05-25T17:44:04.463Z,97546.00
2023-05-25T17:46:31.424Z,97541.00
2023-05-25T17:48:58.393Z,97548.00
2023-05-25T17:51:25.725Z,97551.00
2023-05-25T17:53:52.611Z,97549.00
2023-05-25T17:56:19.480Z,97555.00
2023-05-25T17:58:47.637Z,97550.00
2023-05-25T18:01:16.011Z,97547.00
2023-05-25T18:03:43.127Z,97554.00
2023-05-25T18:06:10.264Z,97554.00
2023-05-25T18:08:37.148Z,97555.00
2023-05-25T18:11:04.185Z,97556.00
2023-05-25T18:13:31.062Z,97558.00
2023-05-25T18:15:58.040Z,97557.00
2023-05-25T18:18:24.954Z,97567.00
2023-05-25T18:20:51.874Z,97570.00
2023-05-25T18:23:18.837Z,97567.00
2023-05-25T18:25:46.104Z,97559.00
2023-05-25T18:28:15.137Z,97567.00
2023-05-25T18:30:45.726Z,97554.00
2023-05-25T18:33:12.832Z,97561.00
2023-05-25T18:35:39.865Z,97566.00
2023-05-25T18:38:06.820Z,97574.00
2023-05-25T18:40:33.809Z,97565.00
2023-05-25T18:43:00.902Z,97572.00
2023-05-25T18:45:27.856Z,97577.00
2023-05-25T18:47:54.768Z,97568.00
2023-05-25T18:50:21.762Z,97568.00
2023-05-25T18:52:51.094Z,97574.00
2023-05-25T18:55:19.013Z,97571.00
2023-05-25T18:57:46.539Z,97576.00
2023-05-25T19:00:14.300Z,97575.00
2023-05-25T19:02:41.375Z,97579.00
2023-05-25T19:05:11.402Z,97578.00
2023-05-25T19:07:54.853Z,97587.00
2023-05-25T19:10:25.727Z,97583.00
2023-05-25T19:12:52.634Z,97587.00
2023-05-25T19:15:19.672Z,97595.00
2023-05-25T19:17:49.589Z,97595.00
2023-05-25T19:20:16.991Z,97601.00
2023-05-25T19:22:44.070Z,97596.00
2023-05-25T19:25:11.137Z,97606.00
2023-05-25T19:27:37.966Z,97607.00
2023-05-25T19:30:05.478Z,97615.00
2023-05-25T19:32:32.373Z,97617.00
2023-05-25T19:34:59.230Z,97621.00
2023-05-25T19:37:26.624Z,97614.00
2023-05-25T19:39:53.721Z,97615.00
2023-05-25T19:42:20.619Z,97609.00
2023-05-25T19:44:47.476Z,97612.00
2023-05-25T19:47:14.346Z,97617.00
2023-05-25T19:49:41.312Z,97625.00
2023-05-25T19:52:08.222Z,97623.00
2023-05-25T19:54:35.203Z,97629.00
2023-05-25T19:57:02.929Z,97626.00
2023-05-25T19:59:31.230Z,97633.00
2023-05-25T20:01:58.531Z,97633.00
2023-05-25T20:04:25.730Z,97634.00
2023-05-25T20:06:53.374Z,97641.00
2023-05-25T20:09:24.484Z,97643.00
2023-05-25T20:11:51.283Z,97641.00
2023-05-25T20:14:20.120Z,97640.00
2023-05-25T20:16:47.314Z,97635.00
2023-05-25T20:19:14.239Z,97644.00
2023-05-25T20:21:41.198Z,97643.00
2023-05-25T20:24:08.058Z,97650.00
2023-05-25T20:26:34.977Z,97650.00
2023-05-25T20:29:01.833Z,97649.00
2023-05-25T20:31:28.743Z,97647.00
2023-05-25T20:33:55.608Z,97650.00
2023-05-25T20:36:22.433Z,97641.00
2023-05-25T20:38:49.274Z,97648.00
2023-05-25T20:41:16.234Z,97654.00
2023-05-25T20:43:43.095Z,97657.00
2023-05-25T20:46:10.431Z,97653.00
2023-05-25T20:48:39.573Z,97657.00
2023-05-25T20:51:06.440Z,97650.00
2023-05-25T20:53:33.356Z,97658.00
2023-05-25T20:56:01.942Z,97664.00
2023-05-25T20:58:28.801Z,97675.00
2023-05-25T21:00:55.901Z,97674.00
2023-05-25T21:03:22.902Z,97678.00
2023-05-25T21:05:49.805Z,97678.00
2023-05-25T21:08:16.661Z,97682.00
2023-05-25T21:10:43.534Z,97684.00
2023-05-25T21:13:10.798Z,97689.00
2023-05-25T21:15:37.648Z,97694.00
2023-05-25T21:18:06.925Z,97697.00
2023-05-25T21:20:34.038Z,97693.00
2023-05-25T21:23:02.458Z,97692.00
2023-05-25T21:25:30.563Z,97692.00
2023-05-25T21:27:57.570Z,97702.00
2023-05-25T21:30:24.624Z,97696.00
2023-05-25T21:32:51.714Z,97696.00
2023-05-25T21:35:18.809Z,97704.00
2023-05-25T21:37:46.077Z,97701.00
2023-05-25T21:40:13.191Z,97714.00
2023-05-25T21:42:40.037Z,97702.00
2023-05-25T21:45:07.703Z,97714.00
2023-05-25T21:47:34.628Z,97716.00
2023-05-25T21:50:01.563Z,97711.00
2023-05-25T21:52:28.381Z,97720.00
2023-05-25T21:54:55.368Z,97725.00
2023-05-25T21:57:22.304Z,97728.00
2023-05-25T21:59:49.194Z,97723.00
2023-05-25T22:02:16.234Z,97730.00
2023-05-25T22:04:43.133Z,97733.00
2023-05-25T22:07:09.986Z,97730.00
2023-05-25T22:09:36.839Z,97733.00
2023-05-25T22:12:04.022Z,97741.00
2023-05-25T22:14:30.958Z,97738.00
2023-05-25T22:16:57.817Z,97744.00
2023-05-25T22:19:24.739Z,97751.00
2023-05-25T22:21:53.347Z,97749.00
2023-05-25T22:24:20.487Z,97741.00
2023-05-25T22:26:47.359Z,97752.00
2023-05-25T22:29:14.328Z,97749.00
2023-05-25T22:31:41.326Z,97748.00
2023-05-25T22:34:08.257Z,97748.00
2023-05-25T22:36:35.170Z,97759.00
2023-05-25T22:39:01.996Z,97762.00
2023-05-25T22:41:28.881Z,97754.00
2023-05-25T22:43:55.943Z,97766.00
2023-05-25T22:46:23.285Z,97765.00
2023-05-25T22:48:50.230Z,97767.00
2023-05-25T22:51:17.250Z,97771.00
2023-05-25T22:53:44.101Z,97759.00
2023-05-25T22:56:11.475Z,97759.00
2023-05-25T22:58:39.001Z,97773.00
2023-05-25T23:01:05.954Z,97775.00
2023-05-25T23:03:32.945Z,97768.00
2023-05-25T23:05:59.888Z,97771.00
2023-05-25T23:08:27.063Z,97776.00
2023-05-25T23:10:53.966Z,97776.00
2023-05-25T23:13:23.896Z,97768.00
2023-05-25T23:15:51.015Z,97775.00
2023-05-25T23:18:17.925Z,97777.00
2023-05-25T23:20:45.005Z,97775.00
2023-05-25T23:23:12.191Z,97770.00
2023-05-25T23:25:39.515Z,97781.00
2023-05-25T23:28:06.417Z,97777.00
2023-05-25T23:30:33.288Z,97787.00
2023-05-25T23:33:00.697Z,97781.00
2023-05-25T23:35:28.666Z,97786.00
2023-05-25T23:37:57.681Z,97778.00
2023-05-25T23:40:24.703Z,97782.00
2023-05-25T23:42:52.034Z,97788.00
2023-05-25T23:45:19.730Z,97782.00
2023-05-25T23:47:46.782Z,97784.00
2023-05-25T23:50:13.695Z,97778.00
2023-05-25T23:52:41.516Z,97783.00
2023-05-25T23:55:08.735Z,97790.00
2023-05-25T23:57:36.580Z,97787.00
